Terminal Aerodrome Forecast
Issued by NWS Rapid City, SD

Home | Current Version | Previous Version | Graphics & Text | Print | Product List | Glossary On
Versions: 1 2 3 4 5 6 7 8 9 10 11 12 13 14 15 16 17 18 19
000
FTUS43 KUNR 101400 AAA
TAFRAP
TAF AMD
KRAP 101457Z 1015/1112 17010KT P6SM FEW120
     FM101800 VRB05KT P6SM SCT120
     FM102000 05008KT P6SM SCT100
      TEMPO 1102/1105 TSRA BKN060CB=

USA.gov is the U.S. government's official web portal to all federal, state and local government web resources and services.